createdAt,value
2019-04-10T00:01:05.269Z,2.93
2019-04-10T00:06:08.912Z,2.87
2019-04-10T00:11:13.304Z,2.80
2019-04-10T00:16:18.129Z,2.62
2019-04-10T00:21:22.967Z,2.68
2019-04-10T00:26:27.872Z,2.58
2019-04-10T00:31:32.287Z,2.57
2019-04-10T00:36:37.158Z,2.36
2019-04-10T00:41:41.413Z,2.21
2019-04-10T00:46:46.457Z,2.13
2019-04-10T00:51:50.733Z,2.00
2019-04-10T00:56:55.003Z,1.69
2019-04-10T01:02:00.334Z,1.50
2019-04-10T01:07:08.617Z,1.29
2019-04-10T01:12:13.772Z,1.20
2019-04-10T01:17:20.586Z,0.93
2019-04-10T01:22:25.358Z,0.70
2019-04-10T01:27:29.325Z,0.55
2019-04-10T01:32:34.229Z,0.46
2019-04-10T01:37:48.430Z,0.49
2019-04-10T01:42:58.933Z,0.52
2019-04-10T01:47:51.222Z,0.58
2019-04-10T01:52:55.613Z,0.46
2019-04-10T01:57:59.674Z,0.41
2019-04-10T02:03:05.591Z,0.38
2019-04-10T02:08:13.095Z,0.34
2019-04-10T02:13:15.310Z,0.06
2019-04-10T02:18:19.423Z,-0.18
2019-04-10T02:23:23.717Z,-0.35
2019-04-10T02:28:29.064Z,-0.43
2019-04-10T02:33:33.683Z,-0.57
2019-04-10T02:38:52.632Z,-0.64
2019-04-10T02:43:43.488Z,-0.65
2019-04-10T02:48:47.737Z,-0.72
2019-04-10T02:53:53.248Z,-0.75
2019-04-10T02:58:58.666Z,-0.69
2019-04-10T03:04:05.467Z,-0.69
2019-04-10T03:09:30.569Z,-0.65
2019-04-10T03:14:16.828Z,-0.50
2019-04-10T03:19:21.352Z,-0.24
2019-04-10T03:24:25.377Z,0.00
2019-04-10T03:29:29.650Z,0.20
2019-04-10T03:34:38.332Z,0.30
2019-04-10T03:39:40.554Z,0.48
2019-04-10T03:44:45.204Z,0.64
2019-04-10T03:49:49.862Z,0.76
2019-04-10T03:54:54.520Z,0.87
2019-04-10T03:59:58.662Z,1.00
2019-04-10T04:05:02.767Z,1.02
2019-04-10T04:10:06.898Z,0.94
2019-04-10T04:15:11.444Z,0.74
2019-04-10T04:20:15.471Z,0.64
2019-04-10T04:25:19.469Z,0.61
2019-04-10T04:30:24.588Z,0.66
2019-04-10T04:35:29.760Z,0.83
2019-04-10T04:40:34.353Z,1.02
2019-04-10T04:45:38.404Z,1.11
2019-04-10T04:50:43.379Z,1.10
2019-04-10T04:55:47.742Z,1.10
2019-04-10T05:00:52.301Z,1.12
2019-04-10T05:05:56.333Z,1.23
2019-04-10T05:11:00.475Z,1.46
2019-04-10T05:16:04.512Z,1.71
2019-04-10T05:21:08.588Z,1.96
2019-04-10T05:26:12.572Z,2.11
2019-04-10T05:31:17.257Z,2.33
2019-04-10T05:36:21.585Z,2.62
2019-04-10T05:41:26.026Z,2.91
2019-04-10T05:46:30.364Z,2.99
2019-04-10T05:51:34.433Z,3.27
2019-04-10T05:56:38.793Z,3.63
2019-04-10T06:01:44.157Z,4.16
2019-04-10T06:06:49.136Z,4.68
2019-04-10T06:11:53.648Z,5.84
2019-04-10T06:16:58.582Z,9.46
2019-04-10T06:22:03.633Z,8.57
2019-04-10T06:27:08.209Z,7.11
2019-04-10T06:32:13.470Z,7.03
2019-04-10T06:37:18.041Z,7.04
2019-04-10T06:42:22.639Z,6.60
2019-04-10T06:47:26.621Z,6.37
2019-04-10T06:52:32.230Z,6.32
2019-04-10T06:57:47.859Z,6.61
2019-04-10T07:02:42.408Z,6.85
2019-04-10T07:07:52.065Z,6.84
2019-04-10T07:12:53.395Z,6.89
2019-04-10T07:17:57.430Z,6.93
2019-04-10T07:23:01.500Z,6.30
2019-04-10T07:28:08.643Z,6.78
2019-04-10T07:33:14.893Z,7.29
2019-04-10T07:38:21.029Z,7.35
2019-04-10T07:43:27.183Z,6.60
2019-04-10T07:48:29.949Z,7.31
2019-04-10T07:53:35.166Z,7.87
2019-04-10T07:58:39.948Z,8.72
2019-04-10T08:03:44.103Z,9.11
2019-04-10T08:08:49.164Z,9.20
2019-04-10T08:13:54.484Z,9.43
2019-04-10T08:18:59.768Z,9.72
2019-04-10T08:24:04.088Z,9.04
2019-04-10T08:29:08.152Z,8.75
2019-04-10T08:34:12.498Z,8.89
2019-04-10T08:39:29.036Z,8.28
2019-04-10T08:44:22.539Z,8.37
2019-04-10T08:49:26.611Z,8.89
2019-04-10T08:54:30.657Z,9.41
2019-04-10T08:59:36.797Z,10.17
2019-04-10T09:04:41.301Z,9.91
2019-04-10T09:09:45.840Z,8.48
2019-04-10T09:14:49.910Z,9.95
2019-04-10T09:19:54.344Z,10.03
2019-04-10T09:24:58.636Z,9.97
2019-04-10T09:30:02.997Z,11.51
2019-04-10T09:35:08.760Z,11.79
2019-04-10T09:40:14.063Z,14.33
2019-04-10T09:45:18.114Z,16.07
2019-04-10T09:50:23.430Z,16.68
2019-04-10T09:55:27.829Z,14.73
2019-04-10T10:00:31.979Z,14.02
2019-04-10T10:05:36.937Z,13.93
2019-04-10T10:10:41.631Z,13.56
2019-04-10T10:15:45.673Z,13.87
2019-04-10T10:20:50.230Z,10.93
2019-04-10T10:25:55.355Z,12.31
2019-04-10T10:31:01.950Z,12.92
2019-04-10T10:36:07.408Z,13.09
2019-04-10T10:41:13.025Z,13.22
2019-04-10T10:46:17.591Z,12.77
2019-04-10T10:51:22.584Z,12.10
2019-04-10T10:56:26.614Z,11.10
2019-04-10T11:01:31.659Z,11.20
2019-04-10T11:06:48.897Z,11.15
2019-04-10T11:11:41.750Z,13.23
2019-04-10T11:16:46.989Z,14.57
2019-04-10T11:21:51.099Z,12.64
2019-04-10T11:26:55.227Z,13.72
2019-04-10T11:31:59.998Z,13.91
2019-04-10T11:42:16.160Z,12.75
2019-04-10T11:47:23.579Z,14.09
2019-04-10T11:57:33.019Z,13.38
2019-04-10T12:02:37.196Z,10.86
2019-04-10T12:08:09.583Z,10.88
2019-04-10T12:12:48.055Z,11.55
2019-04-10T12:17:52.252Z,11.88
2019-04-10T12:22:56.658Z,13.58
2019-04-10T12:28:01.258Z,12.13
2019-04-10T12:33:09.552Z,11.84
2019-04-10T12:38:13.664Z,12.83
2019-04-10T12:43:18.772Z,12.05
2019-04-10T12:48:23.086Z,10.47
2019-04-10T12:53:28.047Z,9.79
2019-04-10T12:58:32.980Z,11.43
2019-04-10T13:03:36.962Z,11.43
2019-04-10T13:08:55.900Z,12.18
2019-04-10T13:13:46.760Z,10.92
2019-04-10T13:18:50.790Z,11.73
2019-04-10T13:23:55.189Z,12.63
2019-04-10T13:29:00.126Z,12.29
2019-04-10T13:34:05.185Z,11.25
2019-04-10T13:39:13.238Z,10.79
2019-04-10T13:44:18.217Z,10.74
2019-04-10T13:49:22.376Z,10.71
2019-04-10T13:54:26.527Z,11.95
2019-04-10T13:59:31.172Z,13.15
2019-04-10T14:04:35.548Z,12.89
2019-04-10T14:09:46.127Z,11.22
2019-04-10T14:14:45.697Z,10.39
2019-04-10T14:19:49.966Z,9.89
2019-04-10T14:24:54.115Z,11.10
2019-04-10T14:29:58.695Z,12.38
2019-04-10T14:35:03.229Z,12.36
2019-04-10T14:40:09.481Z,12.40
2019-04-10T14:45:13.791Z,10.82
2019-04-10T14:50:17.887Z,10.96
2019-04-10T14:55:22.144Z,10.82
2019-04-10T15:00:26.537Z,11.18
2019-04-10T15:05:30.523Z,11.18
2019-04-10T15:10:34.596Z,11.09
2019-04-10T15:15:38.774Z,10.80
2019-04-10T15:20:42.759Z,10.06
2019-04-10T15:25:47.201Z,10.06
2019-04-10T15:30:51.426Z,9.78
2019-04-10T15:35:55.898Z,10.27
2019-04-10T15:41:00.906Z,10.31
2019-04-10T15:46:05.372Z,10.17
2019-04-10T15:51:09.509Z,10.48
2019-04-10T15:56:13.777Z,9.69
2019-04-10T16:01:18.369Z,9.69
2019-04-10T16:06:22.985Z,9.84
2019-04-10T16:11:27.961Z,9.61
2019-04-10T16:16:33.892Z,9.15
2019-04-10T16:21:38.255Z,9.05
2019-04-10T16:26:43.306Z,9.05
2019-04-10T16:31:48.232Z,9.20
2019-04-10T16:36:52.455Z,9.27
2019-04-10T16:41:57.872Z,9.15
2019-04-10T16:47:03.664Z,9.04
2019-04-10T16:52:09.068Z,8.64
2019-04-10T16:57:14.206Z,8.47
2019-04-10T17:02:18.403Z,8.42
2019-04-10T17:07:23.095Z,8.44
2019-04-10T17:12:27.520Z,8.30
2019-04-10T17:17:32.560Z,8.10
2019-04-10T17:22:43.501Z,7.88
2019-04-10T17:27:43.776Z,7.63
2019-04-10T17:32:52.079Z,7.41
2019-04-10T17:37:56.464Z,7.32
2019-04-10T17:43:01.045Z,7.24
2019-04-10T17:48:05.394Z,7.13
2019-04-10T17:53:09.681Z,7.06
2019-04-10T17:58:13.942Z,6.96
2019-04-10T18:03:18.932Z,6.73
2019-04-10T18:08:26.374Z,6.56
2019-04-10T18:13:29.332Z,6.46
2019-04-10T18:18:33.738Z,6.44
2019-04-10T18:23:38.299Z,6.43
2019-04-10T18:28:43.539Z,6.38
2019-04-10T18:33:48.944Z,6.32
2019-04-10T18:38:54.236Z,6.26
2019-04-10T18:43:58.883Z,6.41
2019-04-10T18:49:05.313Z,6.36
2019-04-10T18:54:12.261Z,6.22
2019-04-10T18:59:17.034Z,6.22
2019-04-10T19:04:22.619Z,6.15
2019-04-10T19:09:30.511Z,6.13
2019-04-10T19:14:37.100Z,6.11
2019-04-10T19:19:43.995Z,6.17
2019-04-10T19:24:50.352Z,6.20
2019-04-10T19:29:57.019Z,5.99
2019-04-10T19:35:03.002Z,5.77
2019-04-10T19:40:09.102Z,5.73
2019-04-10T19:45:15.352Z,5.80
2019-04-10T19:50:21.121Z,5.79
2019-04-10T19:55:27.494Z,5.73
2019-04-10T20:00:34.762Z,5.65
2019-04-10T20:05:41.546Z,5.57
2019-04-10T20:10:46.020Z,5.59
2019-04-10T20:15:50.963Z,5.54
2019-04-10T20:20:56.364Z,5.47
2019-04-10T20:26:01.717Z,5.30
2019-04-10T20:31:07.055Z,5.12
2019-04-10T20:36:13.042Z,5.28
2019-04-10T20:41:18.231Z,5.30
2019-04-10T20:46:24.334Z,5.25
2019-04-10T20:51:28.982Z,5.15
2019-04-10T20:56:34.854Z,5.07
2019-04-10T21:01:39.643Z,4.94
2019-04-10T21:06:43.822Z,4.85
2019-04-10T21:12:00.017Z,4.76
2019-04-10T21:16:54.304Z,4.78
2019-04-10T21:21:59.546Z,4.87
2019-04-10T21:27:04.067Z,4.86
2019-04-10T21:32:09.463Z,5.02
2019-04-10T21:37:15.828Z,5.08
2019-04-10T21:42:23.619Z,5.09
2019-04-10T21:47:25.861Z,5.09
2019-04-10T21:52:30.747Z,5.12
2019-04-10T21:57:34.872Z,5.15
2019-04-10T22:02:40.049Z,5.19
2019-04-10T22:07:45.020Z,5.21
2019-04-10T22:12:51.026Z,5.15
2019-04-10T22:17:54.931Z,5.05
2019-04-10T22:23:00.387Z,4.93
2019-04-10T22:28:06.285Z,4.99
2019-04-10T22:33:11.776Z,4.93
2019-04-10T22:38:17.391Z,4.88
2019-04-10T22:43:22.404Z,4.89
2019-04-10T22:48:28.701Z,4.89
2019-04-10T22:53:33.100Z,4.90
2019-04-10T22:58:37.289Z,4.85
2019-04-10T23:03:41.409Z,4.84
2019-04-10T23:08:45.393Z,4.81
2019-04-10T23:13:50.053Z,4.76
2019-04-10T23:18:54.119Z,4.72
2019-04-10T23:23:59.096Z,4.68
2019-04-10T23:29:04.188Z,4.63
2019-04-10T23:34:08.430Z,4.56
2019-04-10T23:39:12.399Z,4.52
2019-04-10T23:44:16.522Z,4.51
2019-04-10T23:49:21.521Z,4.48
2019-04-10T23:54:27.042Z,4.42
2019-04-10T23:59:31.445Z,4.38
